Alexandria, Indiana
Current Conditions -  °F | °C
As of 5:53 PM on Wednesday 22 Oct 2014 (Local Time) from KMIE Reporting Station
Clear Clear  
Wind Chill: 13°   Ceiling: Unl
Heat Index: 13°   Visibility: 10mi
Dew Point:   Wind: 6mph
Humidity: 55%   Direction: 70°ENE
Pressure: 30.26"   Gusts: NA
Location:  40.26°N, 85.67°W
Report Text: KMIE 222153Z 07005KT 10SM CLR 13/04 A3026 RMK AO2 SLP247 T01330044
Loading
Personal Weather Stations






























Interactive Weather Map
Tropical Storm Tracking
New forecast layout! Learn more

10-Day Weather Forecast

Advertisements
Track Severe Weather on mobile